createdAt,value
2022-12-25T00:02:03.290Z,94.97
2022-12-25T00:04:29.866Z,94.77
2022-12-25T00:06:56.481Z,94.69
2022-12-25T00:09:23.120Z,94.72
2022-12-25T00:11:49.831Z,94.61
2022-12-25T00:14:17.183Z,94.61
2022-12-25T00:16:45.030Z,94.54
2022-12-25T00:19:11.634Z,94.60
2022-12-25T00:21:38.412Z,94.56
2022-12-25T00:24:05.279Z,94.57
2022-12-25T00:26:31.893Z,94.66
2022-12-25T00:28:59.015Z,94.75
2022-12-25T00:31:26.461Z,94.88
2022-12-25T00:33:53.806Z,94.89
2022-12-25T00:36:22.053Z,94.83
2022-12-25T00:38:49.035Z,94.70
2022-12-25T00:41:18.436Z,94.74
2022-12-25T00:43:45.148Z,94.89
2022-12-25T00:46:13.773Z,94.82
2022-12-25T00:48:40.787Z,94.86
2022-12-25T00:51:11.731Z,94.79
2022-12-25T00:53:38.789Z,94.74
2022-12-25T00:56:07.795Z,94.60
2022-12-25T01:01:41.179Z,94.52
2022-12-25T01:04:09.012Z,94.60
2022-12-25T01:06:35.628Z,94.54
2022-12-25T01:09:21.041Z,94.53
2022-12-25T01:11:47.721Z,94.62
2022-12-25T01:14:15.311Z,94.53
2022-12-25T01:16:42.490Z,94.49
2022-12-25T01:19:10.327Z,94.43
2022-12-25T01:21:37.159Z,94.36
2022-12-25T01:24:04.030Z,94.37
2022-12-25T01:26:30.734Z,94.36
2022-12-25T01:28:57.501Z,94.22
2022-12-25T01:31:25.142Z,94.29
2022-12-25T01:33:55.116Z,94.09
2022-12-25T01:36:24.373Z,94.04
2022-12-25T01:38:52.730Z,94.12
2022-12-25T01:41:21.996Z,94.10
2022-12-25T01:44:08.148Z,94.22
2022-12-25T01:46:35.717Z,94.18
2022-12-25T01:49:08.228Z,93.98
2022-12-25T01:51:34.891Z,94.00
2022-12-25T01:54:06.033Z,94.06
2022-12-25T01:56:34.719Z,93.99
2022-12-25T01:59:03.431Z,94.06
2022-12-25T02:01:30.301Z,93.99
2022-12-25T02:04:05.210Z,93.95
2022-12-25T02:06:33.429Z,93.83
2022-12-25T02:09:00.211Z,93.86
2022-12-25T02:11:45.221Z,93.85
2022-12-25T02:14:11.883Z,93.68
2022-12-25T02:16:56.729Z,93.76
2022-12-25T02:19:57.537Z,93.74
2022-12-25T02:23:07.271Z,93.69
2022-12-25T02:25:55.825Z,93.58
2022-12-25T02:28:53.099Z,93.60
2022-12-25T02:31:30.697Z,93.60
2022-12-25T02:34:08.914Z,93.57
2022-12-25T02:36:54.037Z,93.80
2022-12-25T02:39:47.857Z,93.91
2022-12-25T02:42:23.080Z,94.00
2022-12-25T02:45:10.550Z,93.95
2022-12-25T02:47:57.046Z,94.01
2022-12-25T02:50:45.158Z,94.02
2022-12-25T02:53:31.128Z,94.06
2022-12-25T02:56:17.702Z,94.02
2022-12-25T02:59:05.049Z,94.03
2022-12-25T03:01:53.604Z,94.13
2022-12-25T03:04:42.437Z,94.27
2022-12-25T03:07:22.553Z,94.24
2022-12-25T03:10:28.564Z,94.22
2022-12-25T03:13:19.046Z,94.34
2022-12-25T03:16:05.411Z,94.30
2022-12-25T03:18:33.130Z,94.36
2022-12-25T03:21:19.433Z,94.34
2022-12-25T03:24:20.151Z,94.46
2022-12-25T03:26:56.284Z,94.29
2022-12-25T03:29:51.430Z,94.19
2022-12-25T03:32:17.986Z,94.19
2022-12-25T03:35:03.012Z,94.25
2022-12-25T03:37:44.833Z,94.28
2022-12-25T03:40:45.039Z,94.30
2022-12-25T03:44:02.643Z,94.26
2022-12-25T03:46:52.698Z,94.29
2022-12-25T03:49:45.237Z,94.11
2022-12-25T03:52:34.411Z,94.05
2022-12-25T03:55:25.067Z,94.15
2022-12-25T03:58:10.676Z,94.11
2022-12-25T04:00:56.298Z,94.26
2022-12-25T04:03:41.530Z,94.28
2022-12-25T04:06:26.888Z,94.35
2022-12-25T04:09:11.876Z,94.39
2022-12-25T04:12:02.219Z,94.52
2022-12-25T04:14:48.219Z,94.34
2022-12-25T04:17:33.344Z,94.26
2022-12-25T04:20:18.707Z,94.21
2022-12-25T04:23:03.698Z,94.11
2022-12-25T04:25:48.801Z,94.05
2022-12-25T04:28:33.931Z,94.07
2022-12-25T04:31:20.006Z,94.06
2022-12-25T04:34:25.295Z,94.03
2022-12-25T04:36:52.532Z,93.93
2022-12-25T04:39:19.443Z,94.04
2022-12-25T04:41:46.060Z,94.06
2022-12-25T04:44:12.899Z,94.15
2022-12-25T04:46:39.667Z,94.24
2022-12-25T04:49:06.356Z,94.19
2022-12-25T04:51:32.998Z,94.18
2022-12-25T04:53:59.827Z,94.09
2022-12-25T04:56:26.436Z,94.14
2022-12-25T04:58:53.125Z,94.17
2022-12-25T05:01:19.950Z,94.31
2022-12-25T05:03:46.759Z,94.26
2022-12-25T05:06:13.403Z,94.21
2022-12-25T05:08:39.988Z,94.25
2022-12-25T05:11:09.873Z,94.08
2022-12-25T05:13:36.830Z,94.07
2022-12-25T05:16:13.380Z,94.12
2022-12-25T05:18:40.257Z,94.08
2022-12-25T05:21:07.968Z,94.09
2022-12-25T05:23:34.991Z,94.19
2022-12-25T05:26:06.619Z,94.24
2022-12-25T05:28:36.809Z,94.18
2022-12-25T05:31:04.003Z,94.25
2022-12-25T05:33:30.833Z,94.24
2022-12-25T05:35:57.390Z,93.98
2022-12-25T05:38:24.073Z,93.71
2022-12-25T05:40:51.921Z,93.68
2022-12-25T05:43:19.710Z,93.54
2022-12-25T05:45:46.348Z,93.40
2022-12-25T05:48:13.112Z,93.24
2022-12-25T05:50:39.827Z,93.12
2022-12-25T05:53:10.807Z,93.15
2022-12-25T05:55:39.238Z,93.16
2022-12-25T05:58:07.475Z,92.87
2022-12-25T06:00:34.730Z,92.88
2022-12-25T06:03:01.620Z,92.85
2022-12-25T06:05:28.564Z,93.13
2022-12-25T06:07:55.229Z,93.09
2022-12-25T06:10:21.955Z,93.18
2022-12-25T06:12:48.609Z,93.02
2022-12-25T06:15:15.485Z,92.94
2022-12-25T06:17:42.096Z,92.83
2022-12-25T06:20:09.320Z,92.81
2022-12-25T06:22:36.044Z,92.56
2022-12-25T06:25:02.924Z,92.50
2022-12-25T06:27:29.761Z,92.48
2022-12-25T06:29:56.968Z,92.50
2022-12-25T06:32:23.675Z,92.43
2022-12-25T06:34:51.033Z,92.62
2022-12-25T06:37:17.676Z,92.43
2022-12-25T06:39:44.331Z,92.49
2022-12-25T06:42:11.376Z,92.25
2022-12-25T06:44:38.738Z,92.36
2022-12-25T06:47:05.795Z,92.44
2022-12-25T06:49:32.545Z,92.37
2022-12-25T06:51:59.156Z,92.44
2022-12-25T06:54:25.837Z,92.49
2022-12-25T06:56:52.566Z,92.51
2022-12-25T06:59:19.325Z,92.43
2022-12-25T07:01:49.472Z,92.40
2022-12-25T07:04:24.493Z,92.32
2022-12-25T07:06:51.327Z,92.18
2022-12-25T07:09:18.053Z,92.26
2022-12-25T07:11:44.710Z,92.21
2022-12-25T07:14:23.414Z,92.46
2022-12-25T07:16:50.760Z,92.53
2022-12-25T07:19:17.572Z,92.56
2022-12-25T07:21:44.125Z,92.64
2022-12-25T07:24:11.030Z,92.69
2022-12-25T07:26:38.010Z,92.55
2022-12-25T07:33:40.143Z,92.27
2022-12-25T07:36:07.895Z,92.27
2022-12-25T07:38:39.406Z,92.44
2022-12-25T07:41:09.771Z,92.47
2022-12-25T07:43:36.423Z,92.45
2022-12-25T07:46:03.067Z,92.45
2022-12-25T07:48:29.863Z,92.49
2022-12-25T07:50:58.380Z,92.56
2022-12-25T07:53:25.081Z,92.44
2022-12-25T07:56:05.411Z,92.43
2022-12-25T07:58:33.014Z,92.55
2022-12-25T08:01:14.476Z,92.50
2022-12-25T08:03:41.121Z,92.44
2022-12-25T08:06:10.069Z,92.70
2022-12-25T08:08:38.320Z,92.64
2022-12-25T08:11:08.041Z,92.56
2022-12-25T08:13:35.126Z,92.42
2022-12-25T08:16:04.301Z,92.33
2022-12-25T08:18:31.953Z,92.39
2022-12-25T08:21:07.057Z,92.18
2022-12-25T08:23:38.394Z,92.29
2022-12-25T08:26:06.526Z,92.58
2022-12-25T08:28:34.090Z,92.80
2022-12-25T08:31:13.857Z,92.88
2022-12-25T08:33:40.409Z,93.30
2022-12-25T08:36:09.761Z,93.20
2022-12-25T08:38:37.211Z,93.26
2022-12-25T08:41:04.035Z,93.26
2022-12-25T08:43:30.527Z,93.18
2022-12-25T08:45:57.063Z,93.12
2022-12-25T08:48:23.664Z,93.14
2022-12-25T08:50:52.197Z,93.26
2022-12-25T08:53:19.056Z,93.24
2022-12-25T08:55:45.692Z,93.28
2022-12-25T08:58:12.521Z,93.47
2022-12-25T09:00:39.817Z,93.53
2022-12-25T09:03:06.854Z,93.61
2022-12-25T09:05:37.672Z,93.95
2022-12-25T09:08:04.648Z,94.01
2022-12-25T09:10:31.128Z,94.39
2022-12-25T09:12:57.658Z,94.53
2022-12-25T09:15:24.287Z,94.88
2022-12-25T09:17:50.834Z,95.34
2022-12-25T09:20:17.490Z,95.50
2022-12-25T09:22:43.983Z,95.86
2022-12-25T09:25:11.177Z,96.04
2022-12-25T09:27:37.718Z,96.20
2022-12-25T09:30:05.440Z,96.38
2022-12-25T09:32:31.914Z,96.50
2022-12-25T09:34:58.427Z,96.71
2022-12-25T09:37:24.925Z,96.45
2022-12-25T09:39:51.484Z,96.79
2022-12-25T09:42:21.921Z,97.00
2022-12-25T09:45:00.555Z,97.29
2022-12-25T09:47:33.933Z,97.42
2022-12-25T09:50:12.558Z,97.57
2022-12-25T09:52:59.361Z,97.68
2022-12-25T09:55:28.667Z,97.85
2022-12-25T09:58:00.428Z,98.04
2022-12-25T10:00:46.782Z,98.19
2022-12-25T10:03:13.349Z,98.43
2022-12-25T10:06:06.399Z,98.62
2022-12-25T10:08:41.892Z,98.76
2022-12-25T10:11:30.259Z,98.89
2022-12-25T10:14:33.148Z,98.93
2022-12-25T10:17:21.498Z,99.02
2022-12-25T10:20:25.460Z,99.12
2022-12-25T10:22:56.749Z,99.09
2022-12-25T10:25:24.888Z,99.15
2022-12-25T10:27:59.921Z,99.19
2022-12-25T10:30:28.612Z,99.24
2022-12-25T10:32:57.217Z,99.31
2022-12-25T10:35:27.318Z,99.31
2022-12-25T10:37:57.321Z,99.35
2022-12-25T10:40:23.770Z,99.38
2022-12-25T10:42:54.662Z,99.35
2022-12-25T10:45:21.361Z,99.35
2022-12-25T10:47:53.050Z,99.31
2022-12-25T10:50:26.582Z,99.21
2022-12-25T10:53:01.585Z,99.16
2022-12-25T10:55:30.391Z,99.10
2022-12-25T10:57:58.072Z,99.11
2022-12-25T11:00:27.739Z,99.13
2022-12-25T11:02:54.706Z,99.07
2022-12-25T11:05:28.264Z,99.17
2022-12-25T11:07:56.136Z,99.21
2022-12-25T11:10:25.378Z,99.25
2022-12-25T11:12:52.931Z,99.17
2022-12-25T11:15:31.862Z,99.15
2022-12-25T11:17:58.411Z,99.11
2022-12-25T11:20:25.538Z,99.19
2022-12-25T11:22:52.117Z,99.20
2022-12-25T11:42:14.125Z,99.15
2022-12-25T11:44:40.573Z,99.07
2022-12-25T11:50:46.785Z,98.99
2022-12-25T11:53:22.283Z,98.89
2022-12-25T12:01:42.985Z,98.49
2022-12-25T12:07:32.914Z,98.43
2022-12-25T12:10:21.287Z,98.30
2022-12-25T12:13:15.279Z,98.04
2022-12-25T12:15:50.257Z,97.90
2022-12-25T12:18:25.935Z,97.79
2022-12-25T12:21:20.961Z,97.62
2022-12-25T12:26:44.216Z,97.41
2022-12-25T12:29:37.181Z,97.13
2022-12-25T12:32:05.362Z,97.17
2022-12-25T12:34:42.649Z,97.28
2022-12-25T12:37:24.589Z,97.33
2022-12-25T12:39:54.219Z,97.41
2022-12-25T12:42:31.534Z,97.24
2022-12-25T12:45:09.011Z,97.20
2022-12-25T12:47:40.964Z,97.23
2022-12-25T12:50:26.119Z,97.21
2022-12-25T12:52:53.003Z,97.23
2022-12-25T12:58:31.617Z,97.19
2022-12-25T13:01:03.267Z,97.11
2022-12-25T13:04:26.435Z,97.00
2022-12-25T13:07:13.343Z,96.93
2022-12-25T13:10:23.904Z,96.86
2022-12-25T13:12:54.198Z,96.95
2022-12-25T13:15:24.643Z,96.83
2022-12-25T13:17:51.585Z,96.61
2022-12-25T13:20:24.838Z,96.80
2022-12-25T13:22:53.191Z,96.82
2022-12-25T13:25:24.053Z,96.68
2022-12-25T13:27:57.357Z,96.54
2022-12-25T13:30:24.950Z,96.48
2022-12-25T13:32:51.704Z,96.45
2022-12-25T13:35:21.255Z,96.18
2022-12-25T13:37:48.120Z,96.12
2022-12-25T13:40:24.851Z,96.11
2022-12-25T13:42:58.035Z,96.16
2022-12-25T13:45:27.251Z,96.18
2022-12-25T13:47:55.861Z,96.08
2022-12-25T13:50:33.047Z,95.89
2022-12-25T13:53:12.508Z,95.84
2022-12-25T13:55:40.067Z,95.82
2022-12-25T13:58:07.584Z,95.70
2022-12-25T14:00:51.156Z,95.89
2022-12-25T14:03:26.150Z,95.72
2022-12-25T14:06:00.960Z,95.64
2022-12-25T14:08:32.262Z,95.64
2022-12-25T14:11:03.645Z,95.51
2022-12-25T14:13:31.980Z,95.61
2022-12-25T14:15:59.475Z,95.47
2022-12-25T14:18:26.929Z,95.53
2022-12-25T14:21:04.049Z,95.47
2022-12-25T14:23:45.977Z,95.59
2022-12-25T14:26:33.456Z,95.70
2022-12-25T14:29:05.910Z,95.75
2022-12-25T14:31:33.279Z,95.76
2022-12-25T14:34:04.483Z,95.62
2022-12-25T14:36:32.122Z,95.54
2022-12-25T14:39:00.829Z,95.80
2022-12-25T14:41:38.671Z,95.54
2022-12-25T14:44:30.406Z,95.68
2022-12-25T14:47:19.283Z,95.64
2022-12-25T14:49:46.073Z,95.51
2022-12-25T14:52:26.997Z,95.39
2022-12-25T14:55:08.017Z,95.22
2022-12-25T14:57:38.714Z,95.12
2022-12-25T15:00:09.152Z,94.96
2022-12-25T15:02:41.136Z,94.93
2022-12-25T15:05:28.724Z,94.65
2022-12-25T15:08:14.475Z,94.80
2022-12-25T15:13:28.531Z,94.67
2022-12-25T15:16:02.505Z,94.67
2022-12-25T15:18:34.441Z,94.67
2022-12-25T15:21:00.992Z,94.56
2022-12-25T15:23:27.587Z,94.52
2022-12-25T15:25:54.127Z,94.50
2022-12-25T15:28:21.109Z,94.13
2022-12-25T15:30:49.720Z,94.11
2022-12-25T15:33:17.933Z,93.90
2022-12-25T15:35:44.913Z,94.07
2022-12-25T15:38:12.599Z,93.82
2022-12-25T15:40:39.901Z,93.59
2022-12-25T15:43:14.521Z,93.24
2022-12-25T15:45:54.070Z,92.83
2022-12-25T15:48:20.616Z,92.91
2022-12-25T15:50:47.290Z,92.88
2022-12-25T15:53:14.161Z,92.92
2022-12-25T15:55:40.960Z,92.99
2022-12-25T15:58:12.440Z,92.89
2022-12-25T16:00:39.044Z,93.01
2022-12-25T16:03:05.719Z,93.15
2022-12-25T16:05:32.379Z,93.03
2022-12-25T16:07:58.886Z,92.99
2022-12-25T16:10:25.464Z,92.69
2022-12-25T16:12:51.979Z,92.74
2022-12-25T16:15:18.576Z,92.44
2022-12-25T16:17:45.190Z,92.63
2022-12-25T16:20:12.212Z,92.49
2022-12-25T16:22:41.670Z,92.49
2022-12-25T16:25:13.831Z,92.47
2022-12-25T16:27:40.703Z,92.57
2022-12-25T16:30:07.928Z,92.51
2022-12-25T16:32:34.646Z,92.39
2022-12-25T16:35:01.309Z,92.30
2022-12-25T16:37:27.834Z,92.21
2022-12-25T16:39:54.435Z,92.26
2022-12-25T16:42:20.924Z,92.25
2022-12-25T16:44:47.466Z,92.34
2022-12-25T16:47:13.953Z,92.17
2022-12-25T16:49:40.434Z,92.12
2022-12-25T16:52:06.947Z,92.36
2022-12-25T16:54:33.581Z,92.34
2022-12-25T16:57:00.103Z,92.30
2022-12-25T16:59:28.843Z,91.72
2022-12-25T17:01:55.515Z,91.90
2022-12-25T17:04:22.239Z,91.69
2022-12-25T17:06:49.032Z,91.63
2022-12-25T17:09:15.587Z,91.77
2022-12-25T17:11:42.058Z,91.74
2022-12-25T17:14:09.790Z,91.72
2022-12-25T17:16:37.740Z,91.74
2022-12-25T17:19:15.465Z,92.14
2022-12-25T17:21:41.941Z,91.94
2022-12-25T17:24:09.517Z,91.96
2022-12-25T17:26:36.148Z,91.90
2022-12-25T17:29:02.926Z,91.71
2022-12-25T17:31:29.816Z,91.64
2022-12-25T17:33:56.476Z,91.45
2022-12-25T17:36:23.629Z,91.11
2022-12-25T17:38:50.195Z,91.14
2022-12-25T17:41:18.236Z,90.93
2022-12-25T17:43:45.996Z,90.70
2022-12-25T17:46:18.724Z,90.44
2022-12-25T17:48:45.858Z,90.55
2022-12-25T17:51:14.429Z,90.37
2022-12-25T17:53:42.879Z,89.88
2022-12-25T17:56:10.379Z,90.04
2022-12-25T17:58:38.127Z,90.30
2022-12-25T18:01:13.932Z,89.86
2022-12-25T18:03:40.815Z,89.99
2022-12-25T18:06:10.374Z,89.91
2022-12-25T18:08:39.523Z,89.73
2022-12-25T18:11:10.259Z,89.56
2022-12-25T18:13:37.176Z,89.51
2022-12-25T18:16:06.676Z,89.20
2022-12-25T18:18:35.314Z,89.29
2022-12-25T18:21:02.347Z,89.53
2022-12-25T18:23:29.509Z,89.21
2022-12-25T18:25:56.442Z,89.01
2022-12-25T18:28:23.150Z,89.09
2022-12-25T18:30:49.656Z,88.83
2022-12-25T18:33:16.149Z,88.97
2022-12-25T18:35:43.625Z,88.97
2022-12-25T18:38:11.486Z,89.23
2022-12-25T18:40:44.903Z,88.97
2022-12-25T18:43:11.792Z,88.81
2022-12-25T18:45:38.614Z,88.59
2022-12-25T18:48:06.365Z,88.48
2022-12-25T18:50:33.544Z,88.42
2022-12-25T18:53:01.125Z,88.60
2022-12-25T18:58:39.605Z,88.62
2022-12-25T19:01:18.758Z,88.66
2022-12-25T19:03:46.249Z,88.89
2022-12-25T19:06:18.791Z,88.80
2022-12-25T19:08:48.612Z,88.97
2022-12-25T19:11:15.790Z,88.96
2022-12-25T19:13:44.335Z,88.79
2022-12-25T19:16:11.268Z,88.74
2022-12-25T19:18:39.335Z,88.53
2022-12-25T19:21:07.879Z,88.79
2022-12-25T19:23:34.747Z,88.81
2022-12-25T19:26:04.761Z,88.41
2022-12-25T19:28:31.269Z,88.33
2022-12-25T19:31:00.583Z,88.31
2022-12-25T19:33:27.790Z,88.16
2022-12-25T19:35:58.601Z,87.85
2022-12-25T19:38:25.148Z,87.82
2022-12-25T19:41:09.993Z,87.60
2022-12-25T19:43:38.712Z,86.93
2022-12-25T19:46:06.942Z,86.99
2022-12-25T19:48:34.639Z,86.83
2022-12-25T19:51:01.280Z,86.86
2022-12-25T19:53:30.041Z,86.54
2022-12-25T19:56:01.646Z,86.36
2022-12-25T19:58:28.243Z,86.26
2022-12-25T20:01:05.184Z,86.28
2022-12-25T20:03:32.884Z,86.19
2022-12-25T20:05:59.429Z,85.86
2022-12-25T20:08:25.925Z,85.94
2022-12-25T20:10:52.860Z,85.73
2022-12-25T20:13:19.616Z,85.74
2022-12-25T20:15:46.506Z,85.70
2022-12-25T20:18:13.800Z,85.83
2022-12-25T20:20:40.761Z,85.73
2022-12-25T20:23:07.275Z,85.84
2022-12-25T20:25:33.794Z,85.87
2022-12-25T20:28:00.536Z,85.83
2022-12-25T20:30:27.023Z,85.72
2022-12-25T20:32:53.715Z,85.56
2022-12-25T20:35:20.274Z,85.85
2022-12-25T20:37:47.284Z,85.75
2022-12-25T20:40:13.773Z,85.50
2022-12-25T20:42:40.298Z,86.02
2022-12-25T20:45:07.618Z,86.32
2022-12-25T20:47:35.055Z,86.82
2022-12-25T20:50:01.583Z,86.91
2022-12-25T20:52:28.128Z,86.97
2022-12-25T20:54:54.985Z,87.28
2022-12-25T20:57:21.600Z,87.47
2022-12-25T20:59:51.792Z,87.62
2022-12-25T21:02:34.060Z,87.93
2022-12-25T21:05:04.239Z,88.33
2022-12-25T21:07:30.801Z,88.49
2022-12-25T21:09:57.283Z,88.69
2022-12-25T21:12:23.753Z,88.85
2022-12-25T21:14:50.211Z,88.97
2022-12-25T21:17:16.983Z,89.05
2022-12-25T21:19:43.727Z,89.14
2022-12-25T21:22:10.424Z,89.25
2022-12-25T21:24:37.098Z,89.21
2022-12-25T21:27:03.787Z,88.97
2022-12-25T21:29:30.344Z,88.93
2022-12-25T21:32:15.544Z,88.47
2022-12-25T21:34:42.021Z,88.34
2022-12-25T21:37:08.509Z,88.55
2022-12-25T21:39:35.041Z,88.37
2022-12-25T21:42:04.456Z,88.42
2022-12-25T21:44:31.066Z,88.48
2022-12-25T21:46:57.647Z,88.46
2022-12-25T21:49:43.243Z,88.59
2022-12-25T21:52:09.800Z,88.59
2022-12-25T21:54:36.603Z,88.38
2022-12-25T21:57:03.721Z,88.41
2022-12-25T21:59:30.433Z,88.30
2022-12-25T22:01:57.080Z,88.13
2022-12-25T22:04:23.764Z,88.03
2022-12-25T22:07:09.440Z,87.64
2022-12-25T22:09:36.333Z,87.47
2022-12-25T22:12:22.384Z,87.44
2022-12-25T22:14:59.166Z,87.94
2022-12-25T22:17:47.216Z,87.36
2022-12-25T22:20:19.558Z,86.80
2022-12-25T22:22:46.302Z,86.85
2022-12-25T22:25:13.819Z,86.84
2022-12-25T22:27:41.970Z,86.68
2022-12-25T22:30:14.967Z,86.61
2022-12-25T22:32:41.852Z,86.72
2022-12-25T22:35:08.945Z,86.24
2022-12-25T22:37:36.174Z,85.71
2022-12-25T22:40:06.019Z,85.73
2022-12-25T22:42:32.685Z,84.70
2022-12-25T22:44:59.194Z,85.12
2022-12-25T22:47:25.744Z,84.49
2022-12-25T22:49:52.326Z,85.03
2022-12-25T22:52:19.329Z,84.57
2022-12-25T22:54:45.837Z,85.02
2022-12-25T22:57:12.524Z,84.64
2022-12-25T22:59:39.017Z,84.31
2022-12-25T23:02:05.628Z,84.07
2022-12-25T23:04:32.386Z,84.39
2022-12-25T23:06:58.949Z,84.13
2022-12-25T23:09:29.242Z,83.29
2022-12-25T23:11:57.180Z,82.89
2022-12-25T23:14:39.237Z,82.81
2022-12-25T23:17:31.511Z,82.30
2022-12-25T23:20:18.366Z,81.72
2022-12-25T23:23:04.662Z,82.11
2022-12-25T23:25:49.986Z,82.32
2022-12-25T23:28:36.487Z,82.53
2022-12-25T23:31:02.990Z,82.74
2022-12-25T23:33:29.562Z,83.00
2022-12-25T23:35:56.034Z,83.22
2022-12-25T23:38:22.608Z,83.66
2022-12-25T23:40:49.113Z,83.93
2022-12-25T23:43:15.733Z,84.02
2022-12-25T23:45:42.225Z,85.00
2022-12-25T23:48:09.180Z,87.67
2022-12-25T23:50:35.690Z,88.84
2022-12-25T23:53:02.228Z,88.74
2022-12-25T23:55:28.680Z,89.01
2022-12-25T23:57:55.497Z,88.77
